sensor_id;sensor_type;location;lat;lon;timestamp;temperature;humidity
27439;DHT22;14887;51.252;7.470;2022-07-04T00:00:13;14.00;99.90
27439;DHT22;14887;51.252;7.470;2022-07-04T00:02:41;14.00;99.90
27439;DHT22;14887;51.252;7.470;2022-07-04T00:05:07;13.90;99.90
27439;DHT22;14887;51.252;7.470;2022-07-04T00:07:44;13.90;99.90
27439;DHT22;14887;51.252;7.470;2022-07-04T00:10:14;13.80;99.90
27439;DHT22;14887;51.252;7.470;2022-07-04T00:12:41;13.80;99.90
27439;DHT22;14887;51.252;7.470;2022-07-04T00:15:09;13.80;99.90
27439;DHT22;14887;51.252;7.470;2022-07-04T00:17:35;13.70;99.90
27439;DHT22;14887;51.252;7.470;2022-07-04T00:20:01;13.60;99.90
27439;DHT22;14887;51.252;7.470;2022-07-04T00:22:27;13.60;99.90
27439;DHT22;14887;51.252;7.470;2022-07-04T00:24:52;13.50;99.90
27439;DHT22;14887;51.252;7.470;2022-07-04T00:27:18;13.50;99.90
27439;DHT22;14887;51.252;7.470;2022-07-04T00:29:44;13.40;99.90
27439;DHT22;14887;51.252;7.470;2022-07-04T00:32:09;13.40;99.90
27439;DHT22;14887;51.252;7.470;2022-07-04T00:34:35;13.30;99.90
27439;DHT22;14887;51.252;7.470;2022-07-04T00:37:00;13.30;99.90
27439;DHT22;14887;51.252;7.470;2022-07-04T00:39:26;13.30;99.90
27439;DHT22;14887;51.252;7.470;2022-07-04T00:41:52;13.20;99.90
27439;DHT22;14887;51.252;7.470;2022-07-04T00:44:17;13.20;99.90
27439;DHT22;14887;51.252;7.470;2022-07-04T00:46:45;13.20;99.90
27439;DHT22;14887;51.252;7.470;2022-07-04T00:49:13;13.20;99.90
27439;DHT22;14887;51.252;7.470;2022-07-04T00:51:40;13.20;99.90
27439;DHT22;14887;51.252;7.470;2022-07-04T00:54:07;13.20;99.90
27439;DHT22;14887;51.252;7.470;2022-07-04T00:56:35;13.20;99.90
27439;DHT22;14887;51.252;7.470;2022-07-04T00:59:01;13.20;99.90
27439;DHT22;14887;51.252;7.470;2022-07-04T01:01:27;13.10;99.90
27439;DHT22;14887;51.252;7.470;2022-07-04T01:03:53;13.10;99.90
27439;DHT22;14887;51.252;7.470;2022-07-04T01:06:19;13.10;99.90
27439;DHT22;14887;51.252;7.470;2022-07-04T01:08:45;13.10;99.90
27439;DHT22;14887;51.252;7.470;2022-07-04T01:11:11;13.10;99.90
27439;DHT22;14887;51.252;7.470;2022-07-04T01:13:38;13.10;99.90
27439;DHT22;14887;51.252;7.470;2022-07-04T01:16:04;13.10;99.90
27439;DHT22;14887;51.252;7.470;2022-07-04T01:18:30;13.00;99.90
27439;DHT22;14887;51.252;7.470;2022-07-04T01:20:56;13.00;99.90
27439;DHT22;14887;51.252;7.470;2022-07-04T01:23:21;13.00;99.90
27439;DHT22;14887;51.252;7.470;2022-07-04T01:25:47;12.90;99.90
27439;DHT22;14887;51.252;7.470;2022-07-04T01:28:14;12.90;99.90
27439;DHT22;14887;51.252;7.470;2022-07-04T01:30:39;12.90;99.90
27439;DHT22;14887;51.252;7.470;2022-07-04T01:33:05;12.90;99.90
27439;DHT22;14887;51.252;7.470;2022-07-04T01:35:31;12.80;99.90
27439;DHT22;14887;51.252;7.470;2022-07-04T01:37:57;12.80;99.90
27439;DHT22;14887;51.252;7.470;2022-07-04T01:40:22;12.80;99.90
27439;DHT22;14887;51.252;7.470;2022-07-04T01:42:48;12.80;99.90
27439;DHT22;14887;51.252;7.470;2022-07-04T01:45:14;12.70;99.90
27439;DHT22;14887;51.252;7.470;2022-07-04T01:47:40;12.70;99.90
27439;DHT22;14887;51.252;7.470;2022-07-04T01:50:07;12.70;99.90
27439;DHT22;14887;51.252;7.470;2022-07-04T01:52:33;12.70;99.90
27439;DHT22;14887;51.252;7.470;2022-07-04T01:54:59;12.70;99.90
27439;DHT22;14887;51.252;7.470;2022-07-04T01:57:24;12.60;99.90
27439;DHT22;14887;51.252;7.470;2022-07-04T01:59:50;12.60;99.90
27439;DHT22;14887;51.252;7.470;2022-07-04T02:02:35;12.60;99.90
27439;DHT22;14887;51.252;7.470;2022-07-04T02:05:00;12.60;99.90
27439;DHT22;14887;51.252;7.470;2022-07-04T02:07:26;12.50;99.90
27439;DHT22;14887;51.252;7.470;2022-07-04T02:09:51;12.50;99.90
27439;DHT22;14887;51.252;7.470;2022-07-04T02:12:17;12.50;99.90
27439;DHT22;14887;51.252;7.470;2022-07-04T02:15:02;12.50;99.90
27439;DHT22;14887;51.252;7.470;2022-07-04T02:17:28;12.50;99.90
27439;DHT22;14887;51.252;7.470;2022-07-04T02:19:53;12.50;99.90
27439;DHT22;14887;51.252;7.470;2022-07-04T02:22:19;12.40;99.90
27439;DHT22;14887;51.252;7.470;2022-07-04T02:24:45;12.50;99.90
27439;DHT22;14887;51.252;7.470;2022-07-04T02:27:11;12.40;99.90
27439;DHT22;14887;51.252;7.470;2022-07-04T02:29:36;12.40;99.90
27439;DHT22;14887;51.252;7.470;2022-07-04T02:32:03;12.40;99.90
27439;DHT22;14887;51.252;7.470;2022-07-04T02:34:28;12.40;99.90
27439;DHT22;14887;51.252;7.470;2022-07-04T02:36:54;12.30;99.90
27439;DHT22;14887;51.252;7.470;2022-07-04T02:39:20;12.30;99.90
27439;DHT22;14887;51.252;7.470;2022-07-04T02:41:45;12.30;99.90
27439;DHT22;14887;51.252;7.470;2022-07-04T02:44:11;12.30;99.90
27439;DHT22;14887;51.252;7.470;2022-07-04T02:46:37;12.20;99.90
27439;DHT22;14887;51.252;7.470;2022-07-04T02:49:03;12.20;99.90
27439;DHT22;14887;51.252;7.470;2022-07-04T02:51:29;12.20;99.90
27439;DHT22;14887;51.252;7.470;2022-07-04T02:53:55;12.10;99.90
27439;DHT22;14887;51.252;7.470;2022-07-04T02:56:21;12.10;99.90
27439;DHT22;14887;51.252;7.470;2022-07-04T02:58:47;12.10;99.90
27439;DHT22;14887;51.252;7.470;2022-07-04T03:01:12;12.10;99.90
27439;DHT22;14887;51.252;7.470;2022-07-04T03:03:41;12.10;99.90
27439;DHT22;14887;51.252;7.470;2022-07-04T03:06:08;12.10;99.90
27439;DHT22;14887;51.252;7.470;2022-07-04T03:08:34;12.10;99.90
27439;DHT22;14887;51.252;7.470;2022-07-04T03:11:00;12.20;99.90
27439;DHT22;14887;51.252;7.470;2022-07-04T03:13:25;12.10;99.90
27439;DHT22;14887;51.252;7.470;2022-07-04T03:15:51;12.10;99.90
27439;DHT22;14887;51.252;7.470;2022-07-04T03:18:17;12.10;99.90
27439;DHT22;14887;51.252;7.470;2022-07-04T03:20:43;12.10;99.90
27439;DHT22;14887;51.252;7.470;2022-07-04T03:23:09;12.10;99.90
27439;DHT22;14887;51.252;7.470;2022-07-04T03:25:34;12.10;99.90
27439;DHT22;14887;51.252;7.470;2022-07-04T03:28:00;12.10;99.90
27439;DHT22;14887;51.252;7.470;2022-07-04T03:30:26;12.00;99.90
27439;DHT22;14887;51.252;7.470;2022-07-04T03:32:52;12.00;99.90
27439;DHT22;14887;51.252;7.470;2022-07-04T03:35:18;12.00;99.90
27439;DHT22;14887;51.252;7.470;2022-07-04T03:37:44;12.10;99.90
27439;DHT22;14887;51.252;7.470;2022-07-04T03:40:10;12.00;99.90
27439;DHT22;14887;51.252;7.470;2022-07-04T03:42:36;12.10;99.90
27439;DHT22;14887;51.252;7.470;2022-07-04T03:45:02;12.00;99.90
27439;DHT22;14887;51.252;7.470;2022-07-04T03:47:28;12.10;99.90
27439;DHT22;14887;51.252;7.470;2022-07-04T03:49:53;12.10;99.90
27439;DHT22;14887;51.252;7.470;2022-07-04T03:52:19;12.10;99.90
27439;DHT22;14887;51.252;7.470;2022-07-04T03:54:44;12.10;99.90
27439;DHT22;14887;51.252;7.470;2022-07-04T03:57:10;12.20;99.90
27439;DHT22;14887;51.252;7.470;2022-07-04T03:59:35;12.20;99.90
27439;DHT22;14887;51.252;7.470;2022-07-04T04:02:01;12.20;99.90
27439;DHT22;14887;51.252;7.470;2022-07-04T04:04:27;12.20;99.90
27439;DHT22;14887;51.252;7.470;2022-07-04T04:07:11;12.10;99.90
27439;DHT22;14887;51.252;7.470;2022-07-04T04:09:36;12.20;99.90
27439;DHT22;14887;51.252;7.470;2022-07-04T04:12:02;12.20;99.90
27439;DHT22;14887;51.252;7.470;2022-07-04T04:14:27;12.20;99.90
27439;DHT22;14887;51.252;7.470;2022-07-04T04:16:53;12.30;99.90
27439;DHT22;14887;51.252;7.470;2022-07-04T04:19:19;12.30;99.90
27439;DHT22;14887;51.252;7.470;2022-07-04T04:21:45;12.30;99.90
27439;DHT22;14887;51.252;7.470;2022-07-04T04:24:10;12.30;99.90
27439;DHT22;14887;51.252;7.470;2022-07-04T04:26:36;12.40;99.90
27439;DHT22;14887;51.252;7.470;2022-07-04T04:29:02;12.40;99.90
27439;DHT22;14887;51.252;7.470;2022-07-04T04:31:28;12.40;99.90
27439;DHT22;14887;51.252;7.470;2022-07-04T04:33:53;12.50;99.90
27439;DHT22;14887;51.252;7.470;2022-07-04T04:36:19;12.50;99.90
27439;DHT22;14887;51.252;7.470;2022-07-04T04:38:44;12.60;99.90
27439;DHT22;14887;51.252;7.470;2022-07-04T04:41:10;12.60;99.90
27439;DHT22;14887;51.252;7.470;2022-07-04T04:43:36;12.60;99.90
27439;DHT22;14887;51.252;7.470;2022-07-04T04:46:01;12.70;99.90
27439;DHT22;14887;51.252;7.470;2022-07-04T04:48:27;12.80;99.90
27439;DHT22;14887;51.252;7.470;2022-07-04T04:50:52;12.80;99.90
27439;DHT22;14887;51.252;7.470;2022-07-04T04:53:18;12.80;99.90
27439;DHT22;14887;51.252;7.470;2022-07-04T04:55:44;12.90;99.90
27439;DHT22;14887;51.252;7.470;2022-07-04T04:58:09;12.90;99.90
27439;DHT22;14887;51.252;7.470;2022-07-04T05:00:35;12.90;99.90
27439;DHT22;14887;51.252;7.470;2022-07-04T05:03:00;13.00;99.90
27439;DHT22;14887;51.252;7.470;2022-07-04T05:05:26;13.00;99.90
27439;DHT22;14887;51.252;7.470;2022-07-04T05:07:51;13.10;99.90
27439;DHT22;14887;51.252;7.470;2022-07-04T05:10:17;13.20;99.90
27439;DHT22;14887;51.252;7.470;2022-07-04T05:12:43;13.30;99.90
27439;DHT22;14887;51.252;7.470;2022-07-04T05:15:09;13.40;99.90
27439;DHT22;14887;51.252;7.470;2022-07-04T05:17:35;13.40;99.90
27439;DHT22;14887;51.252;7.470;2022-07-04T05:20:00;13.50;99.90
27439;DHT22;14887;51.252;7.470;2022-07-04T05:22:26;13.60;99.90
27439;DHT22;14887;51.252;7.470;2022-07-04T05:24:52;13.60;99.90
27439;DHT22;14887;51.252;7.470;2022-07-04T05:27:17;13.60;99.90
27439;DHT22;14887;51.252;7.470;2022-07-04T05:29:43;13.60;99.90
27439;DHT22;14887;51.252;7.470;2022-07-04T05:32:09;13.60;99.90
27439;DHT22;14887;51.252;7.470;2022-07-04T05:34:34;13.60;99.90
27439;DHT22;14887;51.252;7.470;2022-07-04T05:37:01;13.70;99.90
27439;DHT22;14887;51.252;7.470;2022-07-04T05:39:26;13.80;99.90
27439;DHT22;14887;51.252;7.470;2022-07-04T05:41:52;13.90;99.90
27439;DHT22;14887;51.252;7.470;2022-07-04T05:44:17;14.10;99.90
27439;DHT22;14887;51.252;7.470;2022-07-04T05:46:43;14.20;99.90
27439;DHT22;14887;51.252;7.470;2022-07-04T05:49:08;14.30;99.90
27439;DHT22;14887;51.252;7.470;2022-07-04T05:51:34;14.40;99.90
27439;DHT22;14887;51.252;7.470;2022-07-04T05:53:59;14.50;99.90
27439;DHT22;14887;51.252;7.470;2022-07-04T05:56:25;14.60;99.90
27439;DHT22;14887;51.252;7.470;2022-07-04T05:58:50;14.70;99.90
27439;DHT22;14887;51.252;7.470;2022-07-04T06:01:18;14.90;99.90
27439;DHT22;14887;51.252;7.470;2022-07-04T06:03:43;15.10;99.90
27439;DHT22;14887;51.252;7.470;2022-07-04T06:06:09;15.50;99.90
27439;DHT22;14887;51.252;7.470;2022-07-04T06:08:35;16.00;99.90
27439;DHT22;14887;51.252;7.470;2022-07-04T06:11:00;16.50;99.90
27439;DHT22;14887;51.252;7.470;2022-07-04T06:13:28;17.10;99.90
27439;DHT22;14887;51.252;7.470;2022-07-04T06:15:54;17.80;99.90
27439;DHT22;14887;51.252;7.470;2022-07-04T06:18:19;18.50;99.90
27439;DHT22;14887;51.252;7.470;2022-07-04T06:20:45;19.00;99.90
27439;DHT22;14887;51.252;7.470;2022-07-04T06:23:10;19.30;99.90
27439;DHT22;14887;51.252;7.470;2022-07-04T06:25:36;19.60;99.90
27439;DHT22;14887;51.252;7.470;2022-07-04T06:28:02;19.90;99.90
27439;DHT22;14887;51.252;7.470;2022-07-04T06:30:28;20.30;99.90
27439;DHT22;14887;51.252;7.470;2022-07-04T06:32:55;20.80;99.90
27439;DHT22;14887;51.252;7.470;2022-07-04T06:35:23;21.20;99.90
27439;DHT22;14887;51.252;7.470;2022-07-04T06:38:09;21.50;99.90
27439;DHT22;14887;51.252;7.470;2022-07-04T06:40:36;21.60;99.90
27439;DHT22;14887;51.252;7.470;2022-07-04T06:43:02;22.10;99.90
27439;DHT22;14887;51.252;7.470;2022-07-04T06:45:27;22.50;99.90
27439;DHT22;14887;51.252;7.470;2022-07-04T06:47:53;23.10;99.90
27439;DHT22;14887;51.252;7.470;2022-07-04T06:50:19;23.40;99.90
27439;DHT22;14887;51.252;7.470;2022-07-04T06:52:45;23.60;98.90
27439;DHT22;14887;51.252;7.470;2022-07-04T06:55:11;23.80;97.60
27439;DHT22;14887;51.252;7.470;2022-07-04T06:57:37;24.30;96.40
27439;DHT22;14887;51.252;7.470;2022-07-04T07:00:05;24.30;95.90
27439;DHT22;14887;51.252;7.470;2022-07-04T07:02:31;24.40;94.80
27439;DHT22;14887;51.252;7.470;2022-07-04T07:04:58;24.50;93.30
27439;DHT22;14887;51.252;7.470;2022-07-04T07:07:24;25.10;93.20
27439;DHT22;14887;51.252;7.470;2022-07-04T07:09:53;25.30;92.90
27439;DHT22;14887;51.252;7.470;2022-07-04T07:12:20;25.90;92.00
27439;DHT22;14887;51.252;7.470;2022-07-04T07:14:46;26.30;90.20
27439;DHT22;14887;51.252;7.470;2022-07-04T07:17:11;26.40;86.80
27439;DHT22;14887;51.252;7.470;2022-07-04T07:19:37;26.60;86.90
27439;DHT22;14887;51.252;7.470;2022-07-04T07:22:03;27.30;84.70
27439;DHT22;14887;51.252;7.470;2022-07-04T07:24:28;27.60;82.50
27439;DHT22;14887;51.252;7.470;2022-07-04T07:26:56;28.10;81.10
27439;DHT22;14887;51.252;7.470;2022-07-04T07:29:22;27.60;74.80
27439;DHT22;14887;51.252;7.470;2022-07-04T07:31:48;27.30;78.20
27439;DHT22;14887;51.252;7.470;2022-07-04T07:34:14;27.30;78.30
27439;DHT22;14887;51.252;7.470;2022-07-04T07:36:39;27.70;78.30
27439;DHT22;14887;51.252;7.470;2022-07-04T07:39:05;28.00;78.30
27439;DHT22;14887;51.252;7.470;2022-07-04T07:41:31;28.80;76.40
27439;DHT22;14887;51.252;7.470;2022-07-04T07:43:56;28.90;74.60
27439;DHT22;14887;51.252;7.470;2022-07-04T07:46:22;28.50;72.90
27439;DHT22;14887;51.252;7.470;2022-07-04T07:48:48;28.10;73.90
27439;DHT22;14887;51.252;7.470;2022-07-04T07:51:13;27.80;73.80
27439;DHT22;14887;51.252;7.470;2022-07-04T07:53:41;27.80;74.20
27439;DHT22;14887;51.252;7.470;2022-07-04T07:56:07;27.50;72.70
27439;DHT22;14887;51.252;7.470;2022-07-04T07:58:32;27.50;73.60
27439;DHT22;14887;51.252;7.470;2022-07-04T08:00:58;28.10;76.00
27439;DHT22;14887;51.252;7.470;2022-07-04T08:03:24;28.80;71.70
27439;DHT22;14887;51.252;7.470;2022-07-04T08:06:09;29.00;72.80
27439;DHT22;14887;51.252;7.470;2022-07-04T08:08:34;29.30;73.20
27439;DHT22;14887;51.252;7.470;2022-07-04T08:11:00;29.30;70.70
27439;DHT22;14887;51.252;7.470;2022-07-04T08:13:26;29.30;71.10
27439;DHT22;14887;51.252;7.470;2022-07-04T08:15:51;29.40;66.50
27439;DHT22;14887;51.252;7.470;2022-07-04T08:18:17;29.60;67.20
27439;DHT22;14887;51.252;7.470;2022-07-04T08:20:43;29.70;66.10
27439;DHT22;14887;51.252;7.470;2022-07-04T08:23:09;29.30;63.30
27439;DHT22;14887;51.252;7.470;2022-07-04T08:25:35;28.20;65.70
27439;DHT22;14887;51.252;7.470;2022-07-04T08:28:00;28.00;68.10
27439;DHT22;14887;51.252;7.470;2022-07-04T08:30:26;28.30;65.40
27439;DHT22;14887;51.252;7.470;2022-07-04T08:32:51;28.70;66.10
27439;DHT22;14887;51.252;7.470;2022-07-04T08:35:17;29.10;64.80
27439;DHT22;14887;51.252;7.470;2022-07-04T08:37:42;28.90;65.50
27439;DHT22;14887;51.252;7.470;2022-07-04T08:40:09;29.20;64.90
27439;DHT22;14887;51.252;7.470;2022-07-04T08:42:38;29.60;64.20
27439;DHT22;14887;51.252;7.470;2022-07-04T08:45:05;29.70;62.40
27439;DHT22;14887;51.252;7.470;2022-07-04T08:47:35;29.60;61.90
27439;DHT22;14887;51.252;7.470;2022-07-04T08:55:03;29.00;65.70
27439;DHT22;14887;51.252;7.470;2022-07-04T08:57:48;29.40;65.20
27439;DHT22;14887;51.252;7.470;2022-07-04T09:00:34;29.50;63.70
27439;DHT22;14887;51.252;7.470;2022-07-04T09:03:01;29.50;64.70
27439;DHT22;14887;51.252;7.470;2022-07-04T09:05:28;29.90;63.40
27439;DHT22;14887;51.252;7.470;2022-07-04T09:07:54;28.20;59.80
27439;DHT22;14887;51.252;7.470;2022-07-04T09:10:21;26.00;61.40
27439;DHT22;14887;51.252;7.470;2022-07-04T09:12:47;25.00;64.20
27439;DHT22;14887;51.252;7.470;2022-07-04T09:15:13;25.60;66.70
27439;DHT22;14887;51.252;7.470;2022-07-04T09:17:39;27.40;64.90
27439;DHT22;14887;51.252;7.470;2022-07-04T09:20:16;28.40;63.40
27439;DHT22;14887;51.252;7.470;2022-07-04T09:22:42;29.10;63.80
27439;DHT22;14887;51.252;7.470;2022-07-04T09:25:08;30.20;63.30
27439;DHT22;14887;51.252;7.470;2022-07-04T09:27:39;30.90;58.90
27439;DHT22;14887;51.252;7.470;2022-07-04T09:30:06;31.00;57.80
27439;DHT22;14887;51.252;7.470;2022-07-04T09:32:40;31.60;56.70
27439;DHT22;14887;51.252;7.470;2022-07-04T09:35:18;31.30;53.40
27439;DHT22;14887;51.252;7.470;2022-07-04T09:37:45;31.20;53.10
27439;DHT22;14887;51.252;7.470;2022-07-04T09:40:32;31.50;54.90
27439;DHT22;14887;51.252;7.470;2022-07-04T09:42:59;32.20;52.10
27439;DHT22;14887;51.252;7.470;2022-07-04T09:45:26;32.10;51.40
27439;DHT22;14887;51.252;7.470;2022-07-04T09:47:56;32.00;50.90
27439;DHT22;14887;51.252;7.470;2022-07-04T09:50:23;31.70;50.40
27439;DHT22;14887;51.252;7.470;2022-07-04T09:53:00;31.50;49.50
27439;DHT22;14887;51.252;7.470;2022-07-04T09:55:34;31.70;50.60
27439;DHT22;14887;51.252;7.470;2022-07-04T09:58:02;32.40;48.70
27439;DHT22;14887;51.252;7.470;2022-07-04T10:02:57;32.40;49.00
27439;DHT22;14887;51.252;7.470;2022-07-04T10:05:26;32.70;47.40
27439;DHT22;14887;51.252;7.470;2022-07-04T10:07:54;31.80;48.40
27439;DHT22;14887;51.252;7.470;2022-07-04T10:10:21;30.80;47.60
27439;DHT22;14887;51.252;7.470;2022-07-04T10:12:51;30.90;48.00
27439;DHT22;14887;51.252;7.470;2022-07-04T10:15:18;30.60;49.00
27439;DHT22;14887;51.252;7.470;2022-07-04T10:17:44;30.80;48.20
27439;DHT22;14887;51.252;7.470;2022-07-04T10:20:11;31.60;48.80
27439;DHT22;14887;51.252;7.470;2022-07-04T10:22:37;31.60;49.00
27439;DHT22;14887;51.252;7.470;2022-07-04T10:25:04;30.70;48.70
27439;DHT22;14887;51.252;7.470;2022-07-04T10:27:30;30.20;48.90
27439;DHT22;14887;51.252;7.470;2022-07-04T10:29:57;30.00;49.50
27439;DHT22;14887;51.252;7.470;2022-07-04T10:32:24;29.50;50.30
27439;DHT22;14887;51.252;7.470;2022-07-04T10:34:50;29.80;48.10
27439;DHT22;14887;51.252;7.470;2022-07-04T10:37:15;29.90;49.00
27439;DHT22;14887;51.252;7.470;2022-07-04T10:39:42;29.70;49.20
27439;DHT22;14887;51.252;7.470;2022-07-04T10:42:07;29.70;48.60
27439;DHT22;14887;51.252;7.470;2022-07-04T10:44:33;29.40;51.60
27439;DHT22;14887;51.252;7.470;2022-07-04T10:47:04;29.40;51.70
27439;DHT22;14887;51.252;7.470;2022-07-04T10:49:30;29.50;49.70
27439;DHT22;14887;51.252;7.470;2022-07-04T10:52:10;27.80;50.90
27439;DHT22;14887;51.252;7.470;2022-07-04T10:54:37;26.40;49.40
27439;DHT22;14887;51.252;7.470;2022-07-04T10:59:35;23.90;54.70
27439;DHT22;14887;51.252;7.470;2022-07-04T11:04:57;25.90;56.70
27439;DHT22;14887;51.252;7.470;2022-07-04T11:17:59;28.30;51.20
27439;DHT22;14887;51.252;7.470;2022-07-04T11:20:27;28.30;51.20
27439;DHT22;14887;51.252;7.470;2022-07-04T11:23:03;28.50;52.30
27439;DHT22;14887;51.252;7.470;2022-07-04T11:25:29;28.90;51.40
27439;DHT22;14887;51.252;7.470;2022-07-04T11:27:54;29.00;51.80
27439;DHT22;14887;51.252;7.470;2022-07-04T11:30:20;28.60;49.90
27439;DHT22;14887;51.252;7.470;2022-07-04T11:32:45;28.30;51.80
27439;DHT22;14887;51.252;7.470;2022-07-04T11:35:11;28.50;52.40
27439;DHT22;14887;51.252;7.470;2022-07-04T11:37:36;29.00;53.60
27439;DHT22;14887;51.252;7.470;2022-07-04T11:40:02;29.10;51.70
27439;DHT22;14887;51.252;7.470;2022-07-04T11:43:07;29.90;49.60
27439;DHT22;14887;51.252;7.470;2022-07-04T11:45:52;31.00;48.50
27439;DHT22;14887;51.252;7.470;2022-07-04T11:48:25;31.00;45.50
27439;DHT22;14887;51.252;7.470;2022-07-04T11:50:51;29.50;48.20
27439;DHT22;14887;51.252;7.470;2022-07-04T11:53:17;28.10;48.80
27439;DHT22;14887;51.252;7.470;2022-07-04T11:55:56;27.00;49.80
27439;DHT22;14887;51.252;7.470;2022-07-04T11:58:41;27.60;51.60
27439;DHT22;14887;51.252;7.470;2022-07-04T12:01:09;28.70;51.90
27439;DHT22;14887;51.252;7.470;2022-07-04T12:03:35;30.20;50.20
27439;DHT22;14887;51.252;7.470;2022-07-04T12:06:02;30.40;47.30
27439;DHT22;14887;51.252;7.470;2022-07-04T12:08:28;29.70;47.10
27439;DHT22;14887;51.252;7.470;2022-07-04T12:10:54;29.40;47.20
27439;DHT22;14887;51.252;7.470;2022-07-04T12:13:20;28.10;47.70
27439;DHT22;14887;51.252;7.470;2022-07-04T12:15:48;26.90;45.60
27439;DHT22;14887;51.252;7.470;2022-07-04T12:18:19;26.00;48.30
27439;DHT22;14887;51.252;7.470;2022-07-04T12:20:46;25.40;47.70
27439;DHT22;14887;51.252;7.470;2022-07-04T12:23:11;24.90;49.40
27439;DHT22;14887;51.252;7.470;2022-07-04T12:25:38;24.40;50.60
27439;DHT22;14887;51.252;7.470;2022-07-04T12:28:11;24.60;50.00
27439;DHT22;14887;51.252;7.470;2022-07-04T12:30:53;26.00;49.10
27439;DHT22;14887;51.252;7.470;2022-07-04T12:33:21;27.80;47.90
27439;DHT22;14887;51.252;7.470;2022-07-04T12:35:58;29.70;47.00
27439;DHT22;14887;51.252;7.470;2022-07-04T12:40:59;31.30;42.60
27439;DHT22;14887;51.252;7.470;2022-07-04T12:46:13;30.20;45.30
27439;DHT22;14887;51.252;7.470;2022-07-04T12:48:40;30.60;42.40
27439;DHT22;14887;51.252;7.470;2022-07-04T12:51:18;30.70;43.50
27439;DHT22;14887;51.252;7.470;2022-07-04T12:53:46;29.90;41.40
27439;DHT22;14887;51.252;7.470;2022-07-04T12:56:31;28.70;43.60
27439;DHT22;14887;51.252;7.470;2022-07-04T12:58:58;27.80;44.90
27439;DHT22;14887;51.252;7.470;2022-07-04T13:01:24;27.20;47.40
27439;DHT22;14887;51.252;7.470;2022-07-04T13:03:50;26.60;44.70
27439;DHT22;14887;51.252;7.470;2022-07-04T13:06:15;26.00;46.70
27439;DHT22;14887;51.252;7.470;2022-07-04T13:08:41;25.50;48.00
27439;DHT22;14887;51.252;7.470;2022-07-04T13:11:07;25.80;49.20
27439;DHT22;14887;51.252;7.470;2022-07-04T13:13:51;26.40;48.20
27439;DHT22;14887;51.252;7.470;2022-07-04T13:16:16;28.50;49.00
27439;DHT22;14887;51.252;7.470;2022-07-04T13:18:42;28.80;46.20
27439;DHT22;14887;51.252;7.470;2022-07-04T13:21:07;28.10;46.10
27439;DHT22;14887;51.252;7.470;2022-07-04T13:23:33;27.10;47.50
27439;DHT22;14887;51.252;7.470;2022-07-04T13:25:58;26.30;48.00
27439;DHT22;14887;51.252;7.470;2022-07-04T13:28:24;26.00;49.70
27439;DHT22;14887;51.252;7.470;2022-07-04T13:30:50;26.30;51.90
27439;DHT22;14887;51.252;7.470;2022-07-04T13:33:15;28.20;46.40
27439;DHT22;14887;51.252;7.470;2022-07-04T13:35:41;29.90;43.90
27439;DHT22;14887;51.252;7.470;2022-07-04T13:38:07;30.10;45.80
27439;DHT22;14887;51.252;7.470;2022-07-04T13:40:32;30.00;45.30
27439;DHT22;14887;51.252;7.470;2022-07-04T13:42:58;29.30;45.60
27439;DHT22;14887;51.252;7.470;2022-07-04T13:45:28;28.40;45.60
27439;DHT22;14887;51.252;7.470;2022-07-04T13:47:54;28.70;47.30
27439;DHT22;14887;51.252;7.470;2022-07-04T13:50:21;29.60;45.40
27439;DHT22;14887;51.252;7.470;2022-07-04T13:52:46;29.40;46.00
27439;DHT22;14887;51.252;7.470;2022-07-04T13:55:12;29.30;47.80
27439;DHT22;14887;51.252;7.470;2022-07-04T13:57:38;29.70;45.00
27439;DHT22;14887;51.252;7.470;2022-07-04T14:00:05;31.10;45.70
27439;DHT22;14887;51.252;7.470;2022-07-04T14:02:31;32.20;44.10
27439;DHT22;14887;51.252;7.470;2022-07-04T14:04:56;33.10;42.60
27439;DHT22;14887;51.252;7.470;2022-07-04T14:07:22;32.40;41.30
27439;DHT22;14887;51.252;7.470;2022-07-04T14:09:48;30.60;41.30
27439;DHT22;14887;51.252;7.470;2022-07-04T14:12:14;29.20;43.10
27439;DHT22;14887;51.252;7.470;2022-07-04T14:14:40;28.30;45.00
27439;DHT22;14887;51.252;7.470;2022-07-04T14:17:06;28.10;45.90
27439;DHT22;14887;51.252;7.470;2022-07-04T14:19:31;28.50;45.80
27439;DHT22;14887;51.252;7.470;2022-07-04T14:21:57;30.40;44.70
27439;DHT22;14887;51.252;7.470;2022-07-04T14:24:22;32.30;43.90
27439;DHT22;14887;51.252;7.470;2022-07-04T14:26:51;33.50;41.00
27439;DHT22;14887;51.252;7.470;2022-07-04T14:29:17;34.10;41.00
27439;DHT22;14887;51.252;7.470;2022-07-04T14:31:42;33.10;38.00
27439;DHT22;14887;51.252;7.470;2022-07-04T14:34:08;31.90;39.40
27439;DHT22;14887;51.252;7.470;2022-07-04T14:36:37;31.10;42.70
27439;DHT22;14887;51.252;7.470;2022-07-04T14:39:03;30.30;42.30
27439;DHT22;14887;51.252;7.470;2022-07-04T14:41:28;30.30;42.00
27439;DHT22;14887;51.252;7.470;2022-07-04T14:43:54;29.40;42.70
27439;DHT22;14887;51.252;7.470;2022-07-04T14:46:20;28.50;42.00
27439;DHT22;14887;51.252;7.470;2022-07-04T14:48:45;27.60;42.20
27439;DHT22;14887;51.252;7.470;2022-07-04T14:51:11;26.90;43.90
27439;DHT22;14887;51.252;7.470;2022-07-04T14:53:36;28.00;44.30
27439;DHT22;14887;51.252;7.470;2022-07-04T14:56:03;29.30;41.60
27439;DHT22;14887;51.252;7.470;2022-07-04T14:58:28;30.30;40.20
27439;DHT22;14887;51.252;7.470;2022-07-04T15:00:55;31.20;40.60
27439;DHT22;14887;51.252;7.470;2022-07-04T15:03:20;32.30;38.10
27439;DHT22;14887;51.252;7.470;2022-07-04T15:05:46;32.40;37.60
27439;DHT22;14887;51.252;7.470;2022-07-04T15:08:11;33.10;39.00
27439;DHT22;14887;51.252;7.470;2022-07-04T15:10:37;32.70;35.80
27439;DHT22;14887;51.252;7.470;2022-07-04T15:13:03;31.80;35.00
27439;DHT22;14887;51.252;7.470;2022-07-04T15:15:28;31.00;36.00
27439;DHT22;14887;51.252;7.470;2022-07-04T15:17:54;30.10;36.30
27439;DHT22;14887;51.252;7.470;2022-07-04T15:20:20;28.80;39.30
27439;DHT22;14887;51.252;7.470;2022-07-04T15:23:03;27.50;40.60
27439;DHT22;14887;51.252;7.470;2022-07-04T15:25:47;26.30;40.70
27439;DHT22;14887;51.252;7.470;2022-07-04T15:28:13;25.50;43.00
27439;DHT22;14887;51.252;7.470;2022-07-04T15:30:40;25.10;44.00
27439;DHT22;14887;51.252;7.470;2022-07-04T15:33:05;26.00;43.60
27439;DHT22;14887;51.252;7.470;2022-07-04T15:35:31;26.70;45.20
27439;DHT22;14887;51.252;7.470;2022-07-04T15:37:56;26.90;43.50
27439;DHT22;14887;51.252;7.470;2022-07-04T15:40:22;28.00;44.60
27439;DHT22;14887;51.252;7.470;2022-07-04T15:42:48;29.30;42.10
27439;DHT22;14887;51.252;7.470;2022-07-04T15:45:13;30.10;41.20
27439;DHT22;14887;51.252;7.470;2022-07-04T15:47:39;30.60;39.70
27439;DHT22;14887;51.252;7.470;2022-07-04T15:50:06;30.90;40.30
27439;DHT22;14887;51.252;7.470;2022-07-04T15:52:32;31.30;40.30
27439;DHT22;14887;51.252;7.470;2022-07-04T15:54:58;32.00;39.10
27439;DHT22;14887;51.252;7.470;2022-07-04T15:57:23;32.10;39.30